createdAt,value
2018-12-12T00:00:12.400Z,99.9
2018-12-12T00:01:21.883Z,99.9
2018-12-12T00:02:30.483Z,99.9
2018-12-12T00:03:39.790Z,99.9
2018-12-12T00:04:50.053Z,99.9
2018-12-12T00:05:58.161Z,99.9
2018-12-12T00:07:07.613Z,99.9
2018-12-12T00:08:16.643Z,99.9
2018-12-12T00:09:25.761Z,99.9
2018-12-12T00:10:34.945Z,99.9
2018-12-12T00:11:44.113Z,99.9
2018-12-12T00:12:53.388Z,99.9
2018-12-12T00:14:02.550Z,99.9
2018-12-12T00:15:11.804Z,99.9
2018-12-12T00:16:21.074Z,99.9
2018-12-12T00:17:30.162Z,99.9
2018-12-12T00:18:39.388Z,99.9
2018-12-12T00:19:48.532Z,99.9
2018-12-12T00:20:57.742Z,99.9
2018-12-12T00:22:07.067Z,99.9
2018-12-12T00:23:16.261Z,99.9
2018-12-12T00:24:25.407Z,99.9
2018-12-12T00:25:34.912Z,99.9
2018-12-12T00:26:43.967Z,99.9
2018-12-12T00:27:53.442Z,99.9
2018-12-12T00:29:02.629Z,99.9
2018-12-12T00:30:13.837Z,99.9
2018-12-12T00:31:21.448Z,99.9
2018-12-12T00:32:34.264Z,99.9
2018-12-12T00:33:43.351Z,99.9
2018-12-12T00:34:48.743Z,99.9
2018-12-12T00:35:58.257Z,99.9
2018-12-12T00:37:07.441Z,99.9
2018-12-12T00:38:16.864Z,99.9
2018-12-12T00:39:25.810Z,99.9
2018-12-12T00:40:36.334Z,99.9
2018-12-12T00:41:45.429Z,99.9
2018-12-12T00:42:54.702Z,99.9
2018-12-12T00:44:03.765Z,99.9
2018-12-12T00:45:13.031Z,99.9
2018-12-12T00:46:22.390Z,99.9
2018-12-12T00:47:31.509Z,99.9
2018-12-12T00:48:41.173Z,99.9
2018-12-12T00:49:51.223Z,99.9
2018-12-12T00:50:59.288Z,99.9
2018-12-12T00:52:08.699Z,99.9
2018-12-12T00:53:17.636Z,99.9
2018-12-12T00:54:26.768Z,99.9
2018-12-12T00:55:36.193Z,99.9
2018-12-12T00:56:44.941Z,99.9
2018-12-12T00:57:54.153Z,99.9
2018-12-12T00:59:03.417Z,99.9
2018-12-12T01:00:12.575Z,99.9
2018-12-12T01:01:22.062Z,99.9
2018-12-12T01:02:31.161Z,99.9
2018-12-12T01:03:40.241Z,99.9
2018-12-12T01:04:49.623Z,99.9
2018-12-12T01:06:00.477Z,99.9
2018-12-12T01:07:15.212Z,99.9
2018-12-12T01:08:25.665Z,99.9
2018-12-12T01:09:27.678Z,99.9
2018-12-12T01:10:36.483Z,99.9
2018-12-12T01:11:48.123Z,99.9
2018-12-12T01:12:54.931Z,99.9
2018-12-12T01:14:03.523Z,99.9
2018-12-12T01:15:12.442Z,99.9
2018-12-12T01:16:21.579Z,99.9
2018-12-12T01:17:30.800Z,99.9
2018-12-12T01:18:40.089Z,99.9
2018-12-12T01:19:49.220Z,99.9
2018-12-12T01:20:58.418Z,99.9
2018-12-12T01:22:07.696Z,99.9
2018-12-12T01:23:16.882Z,99.9
2018-12-12T01:24:26.176Z,99.9
2018-12-12T01:25:35.620Z,99.9
2018-12-12T01:26:44.551Z,99.9
2018-12-12T01:27:53.737Z,99.9
2018-12-12T01:29:02.950Z,99.9
2018-12-12T01:30:12.178Z,99.9
2018-12-12T01:31:21.376Z,99.9
2018-12-12T01:32:30.601Z,99.9
2018-12-12T01:33:39.908Z,99.9
2018-12-12T01:34:49.042Z,99.9
2018-12-12T01:35:58.248Z,99.9
2018-12-12T01:37:07.500Z,99.9
2018-12-12T01:38:16.699Z,99.9
2018-12-12T01:39:25.921Z,99.9
2018-12-12T01:40:35.136Z,99.9
2018-12-12T01:41:44.344Z,99.9
2018-12-12T01:42:53.562Z,99.9
2018-12-12T01:44:02.782Z,99.9
2018-12-12T01:45:12.099Z,99.9
2018-12-12T01:46:21.222Z,99.9
2018-12-12T01:47:30.783Z,99.9
2018-12-12T01:48:39.722Z,99.9
2018-12-12T01:49:48.942Z,99.9
2018-12-12T01:50:58.112Z,99.9
2018-12-12T01:52:07.338Z,99.9
2018-12-12T01:53:16.531Z,99.9
2018-12-12T01:54:25.805Z,99.9
2018-12-12T01:55:35.011Z,99.9
2018-12-12T01:56:44.259Z,99.9
2018-12-12T01:57:55.089Z,99.9
2018-12-12T01:59:04.359Z,99.9
2018-12-12T02:00:13.519Z,99.9
2018-12-12T02:01:22.823Z,99.9
2018-12-12T02:02:31.958Z,99.9
2018-12-12T02:03:41.195Z,99.9
2018-12-12T02:04:50.394Z,99.9
2018-12-12T02:05:59.664Z,99.9
2018-12-12T02:07:08.854Z,99.9
2018-12-12T02:08:18.064Z,99.9
2018-12-12T02:09:27.969Z,99.9
2018-12-12T02:10:36.644Z,99.9
2018-12-12T02:11:45.725Z,99.9
2018-12-12T02:12:54.932Z,99.9
2018-12-12T02:14:04.186Z,99.9
2018-12-12T02:15:13.634Z,99.9
2018-12-12T02:16:22.665Z,99.9
2018-12-12T02:17:31.816Z,99.9
2018-12-12T02:18:41.042Z,99.9
2018-12-12T02:19:50.248Z,99.9
2018-12-12T02:20:59.472Z,99.9
2018-12-12T02:22:08.703Z,99.9
2018-12-12T02:23:17.912Z,99.9
2018-12-12T02:24:27.202Z,99.9
2018-12-12T02:25:36.367Z,99.9
2018-12-12T02:26:45.585Z,99.9
2018-12-12T02:27:54.791Z,99.9
2018-12-12T02:29:04.025Z,99.9
2018-12-12T02:30:13.247Z,99.9
2018-12-12T02:31:22.478Z,99.9
2018-12-12T02:32:31.698Z,99.9
2018-12-12T02:33:41.016Z,99.9
2018-12-12T02:34:50.125Z,99.9
2018-12-12T02:35:59.360Z,99.9
2018-12-12T02:37:08.563Z,99.9
2018-12-12T02:38:17.992Z,99.9
2018-12-12T02:39:27.027Z,99.9
2018-12-12T02:40:36.240Z,99.9
2018-12-12T02:41:45.471Z,99.9
2018-12-12T02:42:54.699Z,99.9
2018-12-12T02:44:03.910Z,99.9
2018-12-12T02:45:13.152Z,99.9
2018-12-12T02:46:22.389Z,99.9
2018-12-12T02:47:31.702Z,99.9
2018-12-12T02:48:40.872Z,99.9
2018-12-12T02:49:50.047Z,99.9
2018-12-12T02:50:59.226Z,99.9
2018-12-12T02:52:08.457Z,99.9
2018-12-12T02:53:17.678Z,99.9
2018-12-12T02:54:26.977Z,99.9
2018-12-12T02:55:36.216Z,99.9
2018-12-12T02:56:45.375Z,99.9
2018-12-12T02:57:54.886Z,99.9
2018-12-12T02:59:03.922Z,99.9
2018-12-12T03:00:13.329Z,99.9
2018-12-12T03:01:29.147Z,99.9
2018-12-12T03:02:31.489Z,99.9
2018-12-12T03:03:40.746Z,99.9
2018-12-12T03:04:50.005Z,99.9
2018-12-12T03:05:59.143Z,99.9
2018-12-12T03:07:08.387Z,99.9
2018-12-12T03:08:17.587Z,99.9
2018-12-12T03:09:26.921Z,99.9
2018-12-12T03:10:36.031Z,99.9
2018-12-12T03:11:45.310Z,99.9
2018-12-12T03:12:54.512Z,99.9
2018-12-12T03:14:03.727Z,99.9
2018-12-12T03:15:12.957Z,99.9
2018-12-12T03:16:22.173Z,99.9
2018-12-12T03:17:31.403Z,99.9
2018-12-12T03:18:40.617Z,99.9
2018-12-12T03:19:49.860Z,99.9
2018-12-12T03:20:59.641Z,99.9
2018-12-12T03:22:08.302Z,99.9
2018-12-12T03:23:17.532Z,99.9
2018-12-12T03:24:26.774Z,99.9
2018-12-12T03:25:35.959Z,99.9
2018-12-12T03:26:45.178Z,99.9
2018-12-12T03:27:54.431Z,99.9
2018-12-12T03:29:03.649Z,99.9
2018-12-12T03:30:12.880Z,99.9
2018-12-12T03:31:23.978Z,99.9
2018-12-12T03:32:32.184Z,99.9
2018-12-12T03:33:42.020Z,99.9
2018-12-12T03:34:50.431Z,99.9
2018-12-12T03:35:59.931Z,99.9
2018-12-12T03:37:08.767Z,99.9
2018-12-12T03:38:18.095Z,99.9
2018-12-12T03:39:27.953Z,99.9
2018-12-12T03:40:36.957Z,99.9
2018-12-12T03:41:46.438Z,99.9
2018-12-12T03:42:55.316Z,99.9
2018-12-12T03:44:04.803Z,99.9
2018-12-12T03:45:13.277Z,99.9
2018-12-12T03:46:22.910Z,99.9
2018-12-12T03:47:31.762Z,99.9
2018-12-12T03:48:41.703Z,99.9
2018-12-12T03:49:50.093Z,99.9
2018-12-12T03:50:59.512Z,99.9
2018-12-12T03:52:08.670Z,99.9
2018-12-12T03:53:18.621Z,99.9
2018-12-12T03:54:27.364Z,99.9
2018-12-12T03:55:36.939Z,99.9
2018-12-12T03:56:45.688Z,99.9
2018-12-12T03:57:55.209Z,99.9
2018-12-12T03:59:04.491Z,99.9
2018-12-12T04:00:13.613Z,99.9
2018-12-12T04:01:22.647Z,99.9
2018-12-12T04:02:31.585Z,99.9
2018-12-12T04:03:41.744Z,99.9
2018-12-12T04:04:51.335Z,99.9
2018-12-12T04:06:00.729Z,99.9
2018-12-12T04:07:08.772Z,99.9
2018-12-12T04:08:17.949Z,99.9
2018-12-12T04:09:27.348Z,99.9
2018-12-12T04:10:38.000Z,99.9
2018-12-12T04:11:45.842Z,99.9
2018-12-12T04:12:55.013Z,99.9
2018-12-12T04:14:04.625Z,99.9
2018-12-12T04:15:14.962Z,99.9
2018-12-12T04:16:24.059Z,99.9
2018-12-12T04:17:33.358Z,99.9
2018-12-12T04:18:41.290Z,99.9
2018-12-12T04:19:50.218Z,99.9
2018-12-12T04:20:59.424Z,99.9
2018-12-12T04:22:08.524Z,99.9
2018-12-12T04:23:17.859Z,99.9
2018-12-12T04:24:27.553Z,99.9
2018-12-12T04:25:36.324Z,99.9
2018-12-12T04:26:45.604Z,99.9
2018-12-12T04:27:55.251Z,99.9
2018-12-12T04:29:04.592Z,99.9
2018-12-12T04:30:13.676Z,99.9
2018-12-12T04:31:22.990Z,99.9
2018-12-12T04:32:32.388Z,99.9
2018-12-12T04:33:41.059Z,99.9
2018-12-12T04:34:50.994Z,99.9
2018-12-12T04:35:59.137Z,99.9
2018-12-12T04:37:08.691Z,99.9
2018-12-12T04:38:17.626Z,99.9
2018-12-12T04:39:27.332Z,99.9
2018-12-12T04:40:36.739Z,99.9
2018-12-12T04:41:45.715Z,99.9
2018-12-12T04:42:55.671Z,99.9
2018-12-12T04:44:04.628Z,99.9
2018-12-12T04:45:13.249Z,99.9
2018-12-12T04:46:23.247Z,99.9
2018-12-12T04:47:31.723Z,99.9
2018-12-12T04:48:42.101Z,99.9
2018-12-12T04:49:50.405Z,99.9
2018-12-12T04:50:59.274Z,99.9
2018-12-12T04:52:08.622Z,99.9
2018-12-12T04:53:17.958Z,99.9
2018-12-12T04:54:27.519Z,99.9
2018-12-12T04:55:36.004Z,99.9
2018-12-12T04:56:45.907Z,99.9
2018-12-12T04:57:54.738Z,99.9
2018-12-12T04:59:04.404Z,99.9
2018-12-12T05:00:13.686Z,99.9
2018-12-12T05:01:22.444Z,99.9
2018-12-12T05:02:31.646Z,99.9
2018-12-12T05:03:41.174Z,99.9
2018-12-12T05:04:51.897Z,99.9
2018-12-12T05:05:58.956Z,99.9
2018-12-12T05:07:08.110Z,99.9
2018-12-12T05:08:18.195Z,99.9
2018-12-12T05:09:27.806Z,99.9
2018-12-12T05:10:35.899Z,99.9
2018-12-12T05:11:45.811Z,99.9
2018-12-12T05:12:54.926Z,99.9
2018-12-12T05:14:03.897Z,99.9
2018-12-12T05:15:13.414Z,99.9
2018-12-12T05:16:22.622Z,99.9
2018-12-12T05:17:31.756Z,99.9
2018-12-12T05:18:42.403Z,99.9
2018-12-12T05:19:50.657Z,99.9
2018-12-12T05:20:59.883Z,99.9
2018-12-12T05:22:08.216Z,99.9
2018-12-12T05:23:17.439Z,99.9
2018-12-12T05:24:27.387Z,99.9
2018-12-12T05:25:36.036Z,99.9
2018-12-12T05:26:44.612Z,99.9
2018-12-12T05:27:53.792Z,99.9
2018-12-12T05:29:03.502Z,99.9
2018-12-12T05:30:12.391Z,99.9
2018-12-12T05:31:23.709Z,99.9
2018-12-12T05:32:33.567Z,99.9
2018-12-12T05:33:40.288Z,99.9
2018-12-12T05:34:49.190Z,99.9
2018-12-12T05:35:58.334Z,99.9
2018-12-12T05:37:07.682Z,99.9
2018-12-12T05:38:17.554Z,99.9
2018-12-12T05:39:26.090Z,99.9
2018-12-12T05:40:35.460Z,99.9
2018-12-12T05:41:44.505Z,99.9
2018-12-12T05:42:53.727Z,99.9
2018-12-12T05:44:02.967Z,99.9
2018-12-12T05:45:12.238Z,99.9
2018-12-12T05:46:21.345Z,99.9
2018-12-12T05:47:30.620Z,99.9
2018-12-12T05:48:39.791Z,99.9
2018-12-12T05:49:49.125Z,99.9
2018-12-12T05:50:58.439Z,99.9
2018-12-12T05:52:07.447Z,99.9
2018-12-12T05:53:16.662Z,99.9
2018-12-12T05:54:25.908Z,99.9
2018-12-12T05:55:35.096Z,99.9
2018-12-12T05:56:44.301Z,99.9
2018-12-12T05:57:53.615Z,99.9
2018-12-12T05:59:02.729Z,99.9
2018-12-12T06:00:11.999Z,99.9
2018-12-12T06:01:21.182Z,99.9
2018-12-12T06:02:30.376Z,99.9
2018-12-12T06:03:39.559Z,99.9
2018-12-12T06:04:48.764Z,99.9
2018-12-12T06:05:58.081Z,99.9
2018-12-12T06:07:07.221Z,99.9
2018-12-12T06:08:16.419Z,99.9
2018-12-12T06:09:25.639Z,99.9
2018-12-12T06:10:34.855Z,99.9
2018-12-12T06:11:44.052Z,99.9
2018-12-12T06:12:53.272Z,99.9
2018-12-12T06:14:02.490Z,99.9
2018-12-12T06:15:11.703Z,99.9
2018-12-12T06:16:20.915Z,99.9
2018-12-12T06:17:30.125Z,99.9
2018-12-12T06:18:39.340Z,99.9
2018-12-12T06:19:48.542Z,99.9
2018-12-12T06:20:57.744Z,99.9
2018-12-12T06:22:06.963Z,99.9
2018-12-12T06:23:16.183Z,99.9
2018-12-12T06:24:25.407Z,99.9
2018-12-12T06:25:34.597Z,99.9
2018-12-12T06:26:43.794Z,99.9
2018-12-12T06:27:53.008Z,99.9
2018-12-12T06:29:02.234Z,99.9
2018-12-12T06:30:11.426Z,99.9
2018-12-12T06:31:20.663Z,99.9
2018-12-12T06:32:29.854Z,99.9
2018-12-12T06:33:39.074Z,99.9
2018-12-12T06:34:48.371Z,99.9
2018-12-12T06:35:57.512Z,99.9
2018-12-12T06:37:06.705Z,99.9
2018-12-12T06:38:15.923Z,99.9
2018-12-12T06:39:25.179Z,99.9
2018-12-12T06:40:34.347Z,99.9
2018-12-12T06:41:43.547Z,99.9
2018-12-12T06:42:52.781Z,99.9
2018-12-12T06:44:01.959Z,99.9
2018-12-12T06:45:11.256Z,99.9
2018-12-12T06:46:20.378Z,99.9
2018-12-12T06:47:29.591Z,99.9
2018-12-12T06:48:38.819Z,99.9
2018-12-12T06:49:48.257Z,99.9
2018-12-12T06:50:57.310Z,99.9
2018-12-12T06:52:06.499Z,99.9
2018-12-12T06:53:15.649Z,99.9
2018-12-12T06:54:24.946Z,99.9
2018-12-12T06:55:34.071Z,99.9
2018-12-12T06:56:43.301Z,99.9
2018-12-12T06:57:52.498Z,99.9
2018-12-12T06:59:01.704Z,99.9
2018-12-12T07:00:10.931Z,99.9
2018-12-12T07:01:20.138Z,99.9
2018-12-12T07:02:29.338Z,99.9
2018-12-12T07:03:38.560Z,99.9
2018-12-12T07:04:47.768Z,99.9
2018-12-12T07:05:57.050Z,99.9
2018-12-12T07:07:06.211Z,99.9
2018-12-12T07:08:15.398Z,99.9
2018-12-12T07:09:24.608Z,99.9
2018-12-12T07:10:33.815Z,99.9
2018-12-12T07:11:43.030Z,99.9
2018-12-12T07:12:52.218Z,99.9
2018-12-12T07:14:01.457Z,99.9
2018-12-12T07:15:10.638Z,99.9
2018-12-12T07:16:19.865Z,99.9
2018-12-12T07:17:29.077Z,99.9
2018-12-12T07:18:38.287Z,99.9
2018-12-12T07:19:47.554Z,99.9
2018-12-12T07:20:56.769Z,99.9
2018-12-12T07:22:05.949Z,99.9
2018-12-12T07:23:15.110Z,99.9
2018-12-12T07:24:24.336Z,99.9
2018-12-12T07:25:33.534Z,99.9
2018-12-12T07:26:42.728Z,99.9
2018-12-12T07:27:51.974Z,99.9
2018-12-12T07:29:01.179Z,99.9
2018-12-12T07:30:10.376Z,99.9
2018-12-12T07:31:19.612Z,99.9
2018-12-12T07:32:28.808Z,99.9
2018-12-12T07:33:38.010Z,99.9
2018-12-12T07:34:47.219Z,99.9
2018-12-12T07:35:59.759Z,99.9
2018-12-12T07:37:05.694Z,99.9
2018-12-12T07:38:14.938Z,99.9
2018-12-12T07:39:24.071Z,99.9
2018-12-12T07:40:33.277Z,99.9
2018-12-12T07:41:42.569Z,99.9
2018-12-12T07:42:52.426Z,99.9
2018-12-12T07:44:01.384Z,99.9
2018-12-12T07:45:10.137Z,99.9
2018-12-12T07:46:19.333Z,99.9
2018-12-12T07:47:28.550Z,99.9
2018-12-12T07:48:37.783Z,99.9
2018-12-12T07:49:46.989Z,99.9
2018-12-12T07:50:56.799Z,99.9
2018-12-12T07:52:05.465Z,99.9
2018-12-12T07:53:14.677Z,99.9
2018-12-12T07:54:23.831Z,99.9
2018-12-12T07:55:33.554Z,99.9
2018-12-12T07:56:42.320Z,99.9
2018-12-12T07:57:51.511Z,99.9
2018-12-12T07:59:00.694Z,99.9
2018-12-12T08:00:09.883Z,99.9
2018-12-12T08:01:19.118Z,99.9
2018-12-12T08:02:28.328Z,99.9
2018-12-12T08:03:37.530Z,99.9
2018-12-12T08:04:46.895Z,99.9
2018-12-12T08:05:56.723Z,99.9
2018-12-12T08:07:05.336Z,99.9
2018-12-12T08:08:14.436Z,99.9
2018-12-12T08:09:23.604Z,99.9
2018-12-12T08:10:33.072Z,99.9
2018-12-12T08:11:42.200Z,99.9
2018-12-12T08:12:51.329Z,99.9
2018-12-12T08:14:00.622Z,99.9
2018-12-12T08:15:09.750Z,99.9
2018-12-12T08:16:18.895Z,99.9
2018-12-12T08:17:28.137Z,99.9
2018-12-12T08:18:37.354Z,99.9
2018-12-12T08:19:46.589Z,99.9
2018-12-12T08:20:55.832Z,99.9
2018-12-12T08:22:06.458Z,99.9
2018-12-12T08:23:14.269Z,99.9
2018-12-12T08:24:23.446Z,99.9
2018-12-12T08:25:32.785Z,99.9
2018-12-12T08:26:41.911Z,99.9
2018-12-12T08:27:51.559Z,99.9
2018-12-12T08:29:00.378Z,99.9
2018-12-12T08:30:09.669Z,99.9
2018-12-12T08:31:18.924Z,99.9
2018-12-12T08:32:28.078Z,99.9
2018-12-12T08:33:37.336Z,99.9
2018-12-12T08:34:46.528Z,99.9
2018-12-12T08:35:55.674Z,99.9
2018-12-12T08:37:04.896Z,99.9
2018-12-12T08:38:14.118Z,99.9
2018-12-12T08:39:23.351Z,99.9
2018-12-12T08:40:32.622Z,99.9
2018-12-12T08:41:41.791Z,99.9
2018-12-12T08:42:51.126Z,99.9
2018-12-12T08:44:00.334Z,99.9
2018-12-12T08:45:09.485Z,99.9
2018-12-12T08:46:18.725Z,99.9
2018-12-12T08:47:27.937Z,99.9
2018-12-12T08:48:37.162Z,99.9
2018-12-12T08:49:46.403Z,99.9
2018-12-12T08:50:55.627Z,99.9
2018-12-12T08:52:04.961Z,99.9
2018-12-12T08:53:14.123Z,99.9
2018-12-12T08:54:23.320Z,99.9
2018-12-12T08:55:32.548Z,99.9
2018-12-12T08:56:41.780Z,99.9
2018-12-12T08:57:50.990Z,99.9
2018-12-12T08:59:00.236Z,99.9
2018-12-12T09:00:09.462Z,99.9
2018-12-12T09:01:18.696Z,99.9
2018-12-12T09:02:27.954Z,99.9
2018-12-12T09:03:37.161Z,99.9
2018-12-12T09:04:46.506Z,99.9
2018-12-12T09:05:55.701Z,99.9
2018-12-12T09:07:04.856Z,99.9
2018-12-12T09:08:14.099Z,99.9
2018-12-12T09:09:23.339Z,99.9
2018-12-12T09:10:32.627Z,99.9
2018-12-12T09:11:41.801Z,99.9
2018-12-12T09:12:51.042Z,99.9
2018-12-12T09:14:00.343Z,99.9
2018-12-12T09:15:09.530Z,99.9
2018-12-12T09:16:18.764Z,99.9
2018-12-12T09:17:27.987Z,99.9
2018-12-12T09:18:37.265Z,99.9
2018-12-12T09:19:46.473Z,99.9
2018-12-12T09:20:55.949Z,99.9
2018-12-12T09:22:04.958Z,99.9
2018-12-12T09:23:14.216Z,99.9
2018-12-12T09:24:23.436Z,99.9
2018-12-12T09:25:32.690Z,99.9
2018-12-12T09:26:41.992Z,99.9
2018-12-12T09:27:51.321Z,99.9
2018-12-12T09:29:00.448Z,99.9
2018-12-12T09:30:09.681Z,99.9
2018-12-12T09:31:18.928Z,99.9
2018-12-12T09:32:28.164Z,99.9
2018-12-12T09:33:37.408Z,99.9
2018-12-12T09:34:46.651Z,99.9
2018-12-12T09:35:56.080Z,99.9
2018-12-12T09:37:05.158Z,99.9
2018-12-12T09:38:14.394Z,99.9
2018-12-12T09:39:23.646Z,99.9
2018-12-12T09:40:32.889Z,99.9
2018-12-12T09:41:42.210Z,99.9
2018-12-12T09:42:51.432Z,99.9
2018-12-12T09:44:00.653Z,99.9
2018-12-12T09:45:09.907Z,99.9
2018-12-12T09:46:19.145Z,99.9
2018-12-12T09:47:28.471Z,99.9
2018-12-12T09:48:37.653Z,99.9
2018-12-12T09:49:46.994Z,99.9
2018-12-12T09:50:56.167Z,99.9
2018-12-12T09:52:05.491Z,99.9
2018-12-12T09:53:14.689Z,99.9
2018-12-12T09:54:23.932Z,99.9
2018-12-12T09:55:33.194Z,99.9
2018-12-12T09:56:42.549Z,99.9
2018-12-12T09:57:51.691Z,99.9
2018-12-12T09:59:00.965Z,99.9
2018-12-12T10:00:10.387Z,99.9
2018-12-12T10:01:19.617Z,99.9
2018-12-12T10:02:28.713Z,99.9
2018-12-12T10:03:37.998Z,99.9
2018-12-12T10:04:47.256Z,99.9
2018-12-12T10:05:56.543Z,99.9
2018-12-12T10:07:05.778Z,99.9
2018-12-12T10:08:15.040Z,99.9
2018-12-12T10:09:24.308Z,99.9
2018-12-12T10:10:33.575Z,99.9
2018-12-12T10:11:42.812Z,99.9
2018-12-12T10:12:52.166Z,99.9
2018-12-12T10:14:01.342Z,99.9
2018-12-12T10:15:10.610Z,99.9
2018-12-12T10:16:19.892Z,99.9
2018-12-12T10:17:29.100Z,99.9
2018-12-12T10:18:40.021Z,99.9
2018-12-12T10:19:49.253Z,99.9
2018-12-12T10:20:58.456Z,99.9
2018-12-12T10:22:07.717Z,99.9
2018-12-12T10:23:16.999Z,99.9
2018-12-12T10:24:26.283Z,99.9
2018-12-12T10:25:35.543Z,99.9
2018-12-12T10:26:44.786Z,99.9
2018-12-12T10:27:54.020Z,99.9
2018-12-12T10:29:03.875Z,99.9
2018-12-12T10:30:12.572Z,99.9
2018-12-12T10:31:21.820Z,99.9
2018-12-12T10:32:31.754Z,99.9
2018-12-12T10:33:40.334Z,99.9
2018-12-12T10:34:49.621Z,99.9
2018-12-12T10:35:58.879Z,99.9
2018-12-12T10:37:08.155Z,99.9
2018-12-12T10:38:17.413Z,99.9
2018-12-12T10:39:26.677Z,99.9
2018-12-12T10:40:35.963Z,99.9
2018-12-12T10:41:45.233Z,99.9
2018-12-12T10:42:54.561Z,99.9
2018-12-12T10:44:03.788Z,99.9
2018-12-12T10:45:13.560Z,99.9
2018-12-12T10:46:22.344Z,99.9
2018-12-12T10:47:31.586Z,99.9
2018-12-12T10:48:40.936Z,99.9
2018-12-12T10:49:50.132Z,99.9
2018-12-12T10:50:59.420Z,99.9
2018-12-12T10:52:08.696Z,99.9
2018-12-12T10:53:18.009Z,99.9
2018-12-12T10:54:27.241Z,99.9
2018-12-12T10:55:36.519Z,99.9
2018-12-12T10:56:45.812Z,99.9
2018-12-12T10:57:55.149Z,99.9
2018-12-12T10:59:04.346Z,99.9
2018-12-12T11:00:13.632Z,99.9
2018-12-12T11:01:22.924Z,99.9
2018-12-12T11:02:32.174Z,99.9
2018-12-12T11:03:44.588Z,99.9
2018-12-12T11:04:50.762Z,99.9
2018-12-12T11:06:00.019Z,99.9
2018-12-12T11:07:09.306Z,99.9
2018-12-12T11:08:18.597Z,99.9
2018-12-12T11:09:27.866Z,99.9
2018-12-12T11:10:37.134Z,99.9
2018-12-12T11:11:46.481Z,99.9
2018-12-12T11:12:55.684Z,99.9
2018-12-12T11:14:04.952Z,99.9
2018-12-12T11:15:14.255Z,99.9
2018-12-12T11:16:23.524Z,99.9
2018-12-12T11:17:32.796Z,99.9
2018-12-12T11:18:42.148Z,99.9
2018-12-12T11:19:51.517Z,99.9
2018-12-12T11:21:00.672Z,99.9
2018-12-12T11:22:10.611Z,99.9
2018-12-12T11:23:19.213Z,99.9
2018-12-12T11:24:28.459Z,99.9
2018-12-12T11:25:37.719Z,99.9
2018-12-12T11:26:47.137Z,99.9
2018-12-12T11:27:56.257Z,99.9
2018-12-12T11:29:05.684Z,99.9
2018-12-12T11:30:14.801Z,99.9
2018-12-12T11:31:24.080Z,99.9
2018-12-12T11:32:33.379Z,99.9
2018-12-12T11:33:42.663Z,99.9
2018-12-12T11:34:51.897Z,99.9
2018-12-12T11:36:01.180Z,99.9
2018-12-12T11:37:10.457Z,99.9
2018-12-12T11:38:19.760Z,99.9
2018-12-12T11:39:28.976Z,99.9
2018-12-12T11:40:38.256Z,99.9
2018-12-12T11:41:47.656Z,99.9
2018-12-12T11:42:56.810Z,99.9
2018-12-12T11:44:06.089Z,99.9
2018-12-12T11:45:15.359Z,99.9
2018-12-12T11:46:24.639Z,99.9
2018-12-12T11:47:33.941Z,99.9
2018-12-12T11:48:43.552Z,99.9
2018-12-12T11:49:52.529Z,99.9
2018-12-12T11:51:01.726Z,99.9
2018-12-12T11:52:11.007Z,99.9
2018-12-12T11:53:20.228Z,99.9
2018-12-12T11:54:29.516Z,99.9
2018-12-12T11:55:38.783Z,99.9
2018-12-12T11:56:48.139Z,99.9
2018-12-12T11:57:58.144Z,99.9
2018-12-12T11:59:06.559Z,99.9
2018-12-12T12:00:15.894Z,99.9
2018-12-12T12:01:25.129Z,99.9
2018-12-12T12:02:35.893Z,99.9
2018-12-12T12:03:43.626Z,99.9
2018-12-12T12:04:53.015Z,99.9
2018-12-12T12:06:02.148Z,99.9
2018-12-12T12:07:11.430Z,99.9
2018-12-12T12:08:20.697Z,99.9
2018-12-12T12:09:29.960Z,99.9
2018-12-12T12:10:39.261Z,99.9
2018-12-12T12:11:48.495Z,99.9
2018-12-12T12:12:57.784Z,99.9
2018-12-12T12:14:07.043Z,99.9
2018-12-12T12:15:16.337Z,99.9
2018-12-12T12:16:25.548Z,99.9
2018-12-12T12:17:34.801Z,99.9
2018-12-12T12:18:44.066Z,99.9
2018-12-12T12:19:53.326Z,99.9
2018-12-12T12:21:02.636Z,99.9
2018-12-12T12:22:11.884Z,99.9
2018-12-12T12:23:21.213Z,99.9
2018-12-12T12:24:30.382Z,99.9
2018-12-12T12:25:39.644Z,99.9
2018-12-12T12:26:48.905Z,99.9
2018-12-12T12:27:58.187Z,99.9
2018-12-12T12:29:07.424Z,99.9
2018-12-12T12:30:16.765Z,99.9
2018-12-12T12:31:25.963Z,99.9
2018-12-12T12:32:35.201Z,99.9
2018-12-12T12:33:44.493Z,99.9
2018-12-12T12:34:53.750Z,99.9
2018-12-12T12:36:03.045Z,99.9
2018-12-12T12:37:12.253Z,99.9
2018-12-12T12:38:21.593Z,99.9
2018-12-12T12:39:30.793Z,99.9
2018-12-12T12:40:40.071Z,99.9
2018-12-12T12:41:49.306Z,99.9
2018-12-12T12:42:58.581Z,99.9
2018-12-12T12:44:07.840Z,99.9
2018-12-12T12:45:17.113Z,99.9
2018-12-12T12:46:26.342Z,99.9
2018-12-12T12:47:35.652Z,99.9
2018-12-12T12:48:44.899Z,99.9
2018-12-12T12:49:54.122Z,99.9
2018-12-12T12:51:03.428Z,99.9
2018-12-12T12:52:12.694Z,99.9
2018-12-12T12:53:21.911Z,99.9
2018-12-12T12:54:31.145Z,99.9
2018-12-12T12:55:40.423Z,99.9
2018-12-12T12:56:49.658Z,99.9
2018-12-12T12:57:59.719Z,99.9
2018-12-12T12:59:08.163Z,99.9
2018-12-12T13:00:17.422Z,99.9
2018-12-12T13:01:26.677Z,99.9
2018-12-12T13:02:35.949Z,99.9
2018-12-12T13:03:45.195Z,99.9
2018-12-12T13:04:54.454Z,99.2
2018-12-12T13:06:03.747Z,99.3
2018-12-12T13:07:12.978Z,98.9
2018-12-12T13:08:22.266Z,98.1
2018-12-12T13:09:31.507Z,96.9
2018-12-12T13:10:40.913Z,97
2018-12-12T13:11:50.228Z,97
2018-12-12T13:12:59.298Z,95.9
2018-12-12T13:14:08.693Z,96
2018-12-12T13:15:17.840Z,95.5
2018-12-12T13:16:27.144Z,94.1
2018-12-12T13:17:36.426Z,94.2
2018-12-12T13:18:45.701Z,94.4
2018-12-12T13:19:55.020Z,95
2018-12-12T13:21:04.191Z,95.3
2018-12-12T13:22:13.504Z,96.7
2018-12-12T13:23:22.779Z,95.1
2018-12-12T13:24:31.998Z,93.9
2018-12-12T13:25:41.321Z,95.9
2018-12-12T13:26:54.086Z,96.7
2018-12-12T13:27:59.866Z,96.8
2018-12-12T13:29:09.109Z,97.8
2018-12-12T13:30:18.609Z,96.8
2018-12-12T13:31:27.650Z,97.5
2018-12-12T13:32:36.892Z,96.8
2018-12-12T13:33:46.173Z,97.5
2018-12-12T13:34:55.444Z,97.6
2018-12-12T13:36:04.710Z,98.3
2018-12-12T13:37:13.937Z,98
2018-12-12T13:38:23.202Z,98.6
2018-12-12T13:39:32.450Z,98.5
2018-12-12T13:40:41.731Z,98.8
2018-12-12T13:41:51.060Z,98.5
2018-12-12T13:43:00.274Z,98.4
2018-12-12T13:44:09.532Z,99.1
2018-12-12T13:45:18.815Z,99.9
2018-12-12T13:46:28.046Z,99.9
2018-12-12T13:47:37.371Z,99.7
2018-12-12T13:48:46.555Z,99.9
2018-12-12T13:49:55.847Z,99.7
2018-12-12T13:51:05.077Z,99.9
2018-12-12T13:52:14.338Z,99.9
2018-12-12T13:53:23.586Z,99.3
2018-12-12T13:54:32.853Z,99.9
2018-12-12T13:55:42.149Z,99.9
2018-12-12T13:56:51.359Z,99.9
2018-12-12T13:58:00.680Z,99.9
2018-12-12T13:59:09.881Z,99.9
2018-12-12T14:00:19.140Z,99.9
2018-12-12T14:01:29.859Z,99.9
2018-12-12T14:02:37.656Z,99.9
2018-12-12T14:03:46.946Z,99.1
2018-12-12T14:04:56.175Z,99.3
2018-12-12T14:06:05.460Z,99.8
2018-12-12T14:07:14.696Z,99.9
2018-12-12T14:08:23.935Z,99.9
2018-12-12T14:09:33.213Z,99.9
2018-12-12T14:10:42.444Z,99.9
2018-12-12T14:11:51.683Z,99.9
2018-12-12T14:13:01.001Z,99.9
2018-12-12T14:14:10.203Z,99.8
2018-12-12T14:15:19.456Z,99.6
2018-12-12T14:16:28.699Z,99.3
2018-12-12T14:17:37.948Z,99.8
2018-12-12T14:18:47.226Z,99.9
2018-12-12T14:19:56.473Z,99.9
2018-12-12T14:21:05.737Z,99.9
2018-12-12T14:22:14.970Z,99.9
2018-12-12T14:23:24.235Z,99.9
2018-12-12T14:24:33.478Z,99.9
2018-12-12T14:25:42.763Z,99.9
2018-12-12T14:26:52.001Z,99.9
2018-12-12T14:28:01.239Z,99.9
2018-12-12T14:29:10.478Z,99.9
2018-12-12T14:30:19.928Z,99.9
2018-12-12T14:31:29.609Z,99.9
2018-12-12T14:32:38.284Z,99.9
2018-12-12T14:33:47.576Z,99.9
2018-12-12T14:34:57.459Z,99.9
2018-12-12T14:36:05.976Z,99.9
2018-12-12T14:37:15.208Z,99.9
2018-12-12T14:38:24.452Z,99.9
2018-12-12T14:39:33.709Z,99.9
2018-12-12T14:40:42.924Z,99.9
2018-12-12T14:41:52.205Z,99.9
2018-12-12T14:43:01.469Z,99.9
2018-12-12T14:44:10.659Z,99.9
2018-12-12T14:45:19.907Z,99.9
2018-12-12T14:46:29.163Z,99.9
2018-12-12T14:47:38.367Z,99.9
2018-12-12T14:48:47.594Z,99.9
2018-12-12T14:49:56.866Z,99.9
2018-12-12T14:51:06.059Z,99.9
2018-12-12T14:52:15.311Z,99.9
2018-12-12T14:53:24.525Z,99.9
2018-12-12T14:54:33.759Z,99.9
2018-12-12T14:55:42.983Z,99.9
2018-12-12T14:56:52.246Z,99.9
2018-12-12T14:58:01.521Z,99.9
2018-12-12T14:59:10.667Z,99.9
2018-12-12T15:00:19.925Z,99.9
2018-12-12T15:01:29.144Z,99.9
2018-12-12T15:02:38.366Z,99.9
2018-12-12T15:03:47.584Z,99.9
2018-12-12T15:04:56.820Z,99.9
2018-12-12T15:06:06.054Z,99.9
2018-12-12T15:07:15.270Z,99.9
2018-12-12T15:08:24.474Z,99.9
2018-12-12T15:09:33.754Z,99.9
2018-12-12T15:10:43.098Z,99.9
2018-12-12T15:11:52.143Z,99.9
2018-12-12T15:13:01.373Z,99.9
2018-12-12T15:14:10.593Z,99.9
2018-12-12T15:15:19.873Z,99.9
2018-12-12T15:16:29.028Z,99.9
2018-12-12T15:17:38.275Z,99.9
2018-12-12T15:18:47.469Z,99.9
2018-12-12T15:19:56.739Z,99.9
2018-12-12T15:21:05.908Z,99.9